sensor_id;sensor_type;location;lat;lon;timestamp;temperature;humidity
29731;DHT22;16639;51.488;0.152;2023-07-09T00:02:11;19.60;99.90
29731;DHT22;16639;51.488;0.152;2023-07-09T00:04:38;19.50;99.90
29731;DHT22;16639;51.488;0.152;2023-07-09T00:07:15;19.50;99.90
29731;DHT22;16639;51.488;0.152;2023-07-09T00:09:44;19.50;99.90
29731;DHT22;16639;51.488;0.152;2023-07-09T00:12:16;19.40;99.90
29731;DHT22;16639;51.488;0.152;2023-07-09T00:14:44;19.50;99.90
29731;DHT22;16639;51.488;0.152;2023-07-09T00:17:18;19.50;99.90
29731;DHT22;16639;51.488;0.152;2023-07-09T00:19:46;19.40;99.90
29731;DHT22;16639;51.488;0.152;2023-07-09T00:22:16;19.40;99.90
29731;DHT22;16639;51.488;0.152;2023-07-09T00:24:45;19.40;99.90
29731;DHT22;16639;51.488;0.152;2023-07-09T00:27:17;19.30;99.90
29731;DHT22;16639;51.488;0.152;2023-07-09T00:29:45;19.30;99.90
29731;DHT22;16639;51.488;0.152;2023-07-09T00:32:17;19.30;99.90
29731;DHT22;16639;51.488;0.152;2023-07-09T00:34:48;19.20;99.90
29731;DHT22;16639;51.488;0.152;2023-07-09T00:37:17;19.20;99.90
29731;DHT22;16639;51.488;0.152;2023-07-09T00:39:45;19.20;99.90
29731;DHT22;16639;51.488;0.152;2023-07-09T00:42:15;19.20;99.90
29731;DHT22;16639;51.488;0.152;2023-07-09T00:44:52;19.60;99.90
29731;DHT22;16639;51.488;0.152;2023-07-09T00:47:28;19.30;99.90
29731;DHT22;16639;51.488;0.152;2023-07-09T00:50:08;19.10;99.90
29731;DHT22;16639;51.488;0.152;2023-07-09T00:52:49;19.10;99.90
29731;DHT22;16639;51.488;0.152;2023-07-09T00:55:23;19.10;99.90
29731;DHT22;16639;51.488;0.152;2023-07-09T00:57:55;19.10;99.90
29731;DHT22;16639;51.488;0.152;2023-07-09T01:00:38;19.10;99.90
29731;DHT22;16639;51.488;0.152;2023-07-09T01:03:25;19.10;99.90
29731;DHT22;16639;51.488;0.152;2023-07-09T01:05:57;19.00;99.90
29731;DHT22;16639;51.488;0.152;2023-07-09T01:08:25;19.00;99.90
29731;DHT22;16639;51.488;0.152;2023-07-09T01:10:58;19.00;99.90
29731;DHT22;16639;51.488;0.152;2023-07-09T01:13:29;19.00;99.90
29731;DHT22;16639;51.488;0.152;2023-07-09T01:15:59;19.00;99.90
29731;DHT22;16639;51.488;0.152;2023-07-09T01:18:27;19.00;99.90
29731;DHT22;16639;51.488;0.152;2023-07-09T01:21:07;19.00;99.90
29731;DHT22;16639;51.488;0.152;2023-07-09T01:23:35;19.00;99.90
29731;DHT22;16639;51.488;0.152;2023-07-09T01:26:03;18.90;99.90
29731;DHT22;16639;51.488;0.152;2023-07-09T01:28:31;19.00;99.90
29731;DHT22;16639;51.488;0.152;2023-07-09T01:30:59;19.00;99.90
29731;DHT22;16639;51.488;0.152;2023-07-09T01:33:27;18.90;99.90
29731;DHT22;16639;51.488;0.152;2023-07-09T01:35:55;19.00;99.90
29731;DHT22;16639;51.488;0.152;2023-07-09T01:38:28;19.00;99.90
29731;DHT22;16639;51.488;0.152;2023-07-09T01:40:58;18.90;99.90
29731;DHT22;16639;51.488;0.152;2023-07-09T01:43:26;18.90;99.90
29731;DHT22;16639;51.488;0.152;2023-07-09T01:45:54;18.90;99.90
29731;DHT22;16639;51.488;0.152;2023-07-09T01:48:26;18.90;99.90
29731;DHT22;16639;51.488;0.152;2023-07-09T01:50:53;19.00;99.90
29731;DHT22;16639;51.488;0.152;2023-07-09T01:53:24;19.00;99.90
29731;DHT22;16639;51.488;0.152;2023-07-09T01:55:53;19.00;99.90
29731;DHT22;16639;51.488;0.152;2023-07-09T01:58:21;19.00;99.90
29731;DHT22;16639;51.488;0.152;2023-07-09T02:00:52;19.10;99.90
29731;DHT22;16639;51.488;0.152;2023-07-09T02:03:19;19.00;99.90
29731;DHT22;16639;51.488;0.152;2023-07-09T02:05:47;19.00;99.90
29731;DHT22;16639;51.488;0.152;2023-07-09T02:08:14;19.10;99.90
29731;DHT22;16639;51.488;0.152;2023-07-09T02:10:44;19.00;99.90
29731;DHT22;16639;51.488;0.152;2023-07-09T02:13:11;19.10;99.90
29731;DHT22;16639;51.488;0.152;2023-07-09T02:15:38;19.00;99.90
29731;DHT22;16639;51.488;0.152;2023-07-09T02:18:11;19.00;99.90
29731;DHT22;16639;51.488;0.152;2023-07-09T02:20:39;19.10;99.90
29731;DHT22;16639;51.488;0.152;2023-07-09T02:23:07;19.10;99.90
29731;DHT22;16639;51.488;0.152;2023-07-09T02:25:35;19.00;99.90
29731;DHT22;16639;51.488;0.152;2023-07-09T02:28:02;19.10;99.90
29731;DHT22;16639;51.488;0.152;2023-07-09T02:30:30;19.10;99.90
29731;DHT22;16639;51.488;0.152;2023-07-09T02:32:57;19.00;99.90
29731;DHT22;16639;51.488;0.152;2023-07-09T02:35:25;19.30;99.90
29731;DHT22;16639;51.488;0.152;2023-07-09T02:37:52;19.00;99.90
29731;DHT22;16639;51.488;0.152;2023-07-09T02:40:20;19.00;99.90
29731;DHT22;16639;51.488;0.152;2023-07-09T02:42:47;18.90;99.90
29731;DHT22;16639;51.488;0.152;2023-07-09T02:45:15;18.90;99.90
29731;DHT22;16639;51.488;0.152;2023-07-09T02:47:42;18.90;99.90
29731;DHT22;16639;51.488;0.152;2023-07-09T02:50:10;17.80;99.90
29731;DHT22;16639;51.488;0.152;2023-07-09T02:52:37;18.80;99.90
29731;DHT22;16639;51.488;0.152;2023-07-09T02:55:05;18.90;99.90
29731;DHT22;16639;51.488;0.152;2023-07-09T02:57:33;18.70;99.90
29731;DHT22;16639;51.488;0.152;2023-07-09T03:00:00;18.70;99.90
29731;DHT22;16639;51.488;0.152;2023-07-09T03:02:28;18.70;99.90
29731;DHT22;16639;51.488;0.152;2023-07-09T03:04:55;18.70;99.90
29731;DHT22;16639;51.488;0.152;2023-07-09T03:07:23;18.70;99.90
29731;DHT22;16639;51.488;0.152;2023-07-09T03:09:51;18.70;99.90
29731;DHT22;16639;51.488;0.152;2023-07-09T03:12:19;18.70;99.90
29731;DHT22;16639;51.488;0.152;2023-07-09T03:14:49;18.70;99.90
29731;DHT22;16639;51.488;0.152;2023-07-09T03:17:17;18.70;99.90
29731;DHT22;16639;51.488;0.152;2023-07-09T03:19:45;18.70;99.90
29731;DHT22;16639;51.488;0.152;2023-07-09T03:22:12;18.70;99.90
29731;DHT22;16639;51.488;0.152;2023-07-09T03:24:39;18.60;99.90
29731;DHT22;16639;51.488;0.152;2023-07-09T03:27:07;18.60;99.90
29731;DHT22;16639;51.488;0.152;2023-07-09T03:29:35;18.60;99.90
29731;DHT22;16639;51.488;0.152;2023-07-09T03:32:03;18.60;99.90
29731;DHT22;16639;51.488;0.152;2023-07-09T03:34:30;18.50;99.90
29731;DHT22;16639;51.488;0.152;2023-07-09T03:36:58;18.50;99.90
29731;DHT22;16639;51.488;0.152;2023-07-09T03:39:25;18.50;99.90
29731;DHT22;16639;51.488;0.152;2023-07-09T03:41:53;18.40;99.90
29731;DHT22;16639;51.488;0.152;2023-07-09T03:44:20;18.40;99.90
29731;DHT22;16639;51.488;0.152;2023-07-09T03:46:47;18.40;99.90
29731;DHT22;16639;51.488;0.152;2023-07-09T03:49:15;18.40;99.90
29731;DHT22;16639;51.488;0.152;2023-07-09T03:51:43;18.40;99.90
29731;DHT22;16639;51.488;0.152;2023-07-09T03:54:10;18.40;99.90
29731;DHT22;16639;51.488;0.152;2023-07-09T03:56:37;18.40;99.90
29731;DHT22;16639;51.488;0.152;2023-07-09T03:59:05;18.40;99.90
29731;DHT22;16639;51.488;0.152;2023-07-09T04:01:32;18.40;99.90
29731;DHT22;16639;51.488;0.152;2023-07-09T04:04:00;18.40;99.90
29731;DHT22;16639;51.488;0.152;2023-07-09T04:06:27;18.30;99.90
29731;DHT22;16639;51.488;0.152;2023-07-09T04:08:54;18.40;99.90
29731;DHT22;16639;51.488;0.152;2023-07-09T04:11:22;18.40;99.90
29731;DHT22;16639;51.488;0.152;2023-07-09T04:13:49;18.40;99.90
29731;DHT22;16639;51.488;0.152;2023-07-09T04:16:17;18.40;99.90
29731;DHT22;16639;51.488;0.152;2023-07-09T04:18:44;18.40;99.90
29731;DHT22;16639;51.488;0.152;2023-07-09T04:21:12;18.70;99.90
29731;DHT22;16639;51.488;0.152;2023-07-09T04:23:39;18.50;99.90
29731;DHT22;16639;51.488;0.152;2023-07-09T04:26:11;18.50;99.90
29731;DHT22;16639;51.488;0.152;2023-07-09T04:28:39;18.50;99.90
29731;DHT22;16639;51.488;0.152;2023-07-09T04:31:07;18.50;99.90
29731;DHT22;16639;51.488;0.152;2023-07-09T04:33:35;18.50;99.90
29731;DHT22;16639;51.488;0.152;2023-07-09T04:36:03;18.50;99.90
29731;DHT22;16639;51.488;0.152;2023-07-09T04:38:33;18.50;99.90
29731;DHT22;16639;51.488;0.152;2023-07-09T04:41:01;18.50;99.90
29731;DHT22;16639;51.488;0.152;2023-07-09T04:43:28;18.50;99.90
29731;DHT22;16639;51.488;0.152;2023-07-09T04:45:56;18.50;99.90
29731;DHT22;16639;51.488;0.152;2023-07-09T04:48:23;18.50;99.90
29731;DHT22;16639;51.488;0.152;2023-07-09T04:50:50;18.50;99.90
29731;DHT22;16639;51.488;0.152;2023-07-09T04:53:18;18.50;99.90
29731;DHT22;16639;51.488;0.152;2023-07-09T04:55:46;18.50;99.90
29731;DHT22;16639;51.488;0.152;2023-07-09T04:58:13;18.50;99.90
29731;DHT22;16639;51.488;0.152;2023-07-09T05:00:42;18.50;99.90
29731;DHT22;16639;51.488;0.152;2023-07-09T05:03:10;18.50;99.90
29731;DHT22;16639;51.488;0.152;2023-07-09T05:05:44;18.50;99.90
29731;DHT22;16639;51.488;0.152;2023-07-09T05:08:13;18.50;99.90
29731;DHT22;16639;51.488;0.152;2023-07-09T05:10:45;18.50;99.90
29731;DHT22;16639;51.488;0.152;2023-07-09T05:13:13;18.50;99.90
29731;DHT22;16639;51.488;0.152;2023-07-09T05:15:44;18.60;99.90
29731;DHT22;16639;51.488;0.152;2023-07-09T05:18:13;18.60;99.90
29731;DHT22;16639;51.488;0.152;2023-07-09T05:20:42;18.60;99.90
29731;DHT22;16639;51.488;0.152;2023-07-09T05:23:10;18.60;99.90
29731;DHT22;16639;51.488;0.152;2023-07-09T05:25:38;18.60;99.90
29731;DHT22;16639;51.488;0.152;2023-07-09T05:28:06;18.50;99.90
29731;DHT22;16639;51.488;0.152;2023-07-09T05:30:33;18.60;99.90
29731;DHT22;16639;51.488;0.152;2023-07-09T05:33:00;18.60;99.90
29731;DHT22;16639;51.488;0.152;2023-07-09T05:35:28;18.60;99.90
29731;DHT22;16639;51.488;0.152;2023-07-09T05:37:56;18.60;99.90
29731;DHT22;16639;51.488;0.152;2023-07-09T05:40:23;18.70;99.90
29731;DHT22;16639;51.488;0.152;2023-07-09T05:42:50;18.60;99.90
29731;DHT22;16639;51.488;0.152;2023-07-09T05:45:18;18.60;99.90
29731;DHT22;16639;51.488;0.152;2023-07-09T05:47:46;18.60;99.90
29731;DHT22;16639;51.488;0.152;2023-07-09T05:50:13;18.60;99.90
29731;DHT22;16639;51.488;0.152;2023-07-09T05:52:41;18.70;99.90
29731;DHT22;16639;51.488;0.152;2023-07-09T05:55:08;18.70;99.90
29731;DHT22;16639;51.488;0.152;2023-07-09T05:57:35;18.70;99.90
29731;DHT22;16639;51.488;0.152;2023-07-09T06:00:03;18.80;99.90
29731;DHT22;16639;51.488;0.152;2023-07-09T06:02:31;18.80;99.90
29731;DHT22;16639;51.488;0.152;2023-07-09T06:04:58;18.90;99.90
29731;DHT22;16639;51.488;0.152;2023-07-09T06:07:26;18.90;99.90
29731;DHT22;16639;51.488;0.152;2023-07-09T06:09:53;18.90;99.90
29731;DHT22;16639;51.488;0.152;2023-07-09T06:12:21;18.90;99.90
29731;DHT22;16639;51.488;0.152;2023-07-09T06:14:48;18.90;99.90
29731;DHT22;16639;51.488;0.152;2023-07-09T06:17:15;18.90;99.90
29731;DHT22;16639;51.488;0.152;2023-07-09T06:19:43;18.90;99.90
29731;DHT22;16639;51.488;0.152;2023-07-09T06:22:10;18.90;99.90
29731;DHT22;16639;51.488;0.152;2023-07-09T06:24:38;18.90;99.90
29731;DHT22;16639;51.488;0.152;2023-07-09T06:27:05;18.90;99.90
29731;DHT22;16639;51.488;0.152;2023-07-09T06:29:33;18.90;99.90
29731;DHT22;16639;51.488;0.152;2023-07-09T06:32:00;18.90;99.90
29731;DHT22;16639;51.488;0.152;2023-07-09T06:34:28;18.90;99.90
29731;DHT22;16639;51.488;0.152;2023-07-09T06:36:56;18.90;99.90
29731;DHT22;16639;51.488;0.152;2023-07-09T06:39:24;18.90;99.90
29731;DHT22;16639;51.488;0.152;2023-07-09T06:41:51;18.90;99.90
29731;DHT22;16639;51.488;0.152;2023-07-09T06:44:19;18.90;99.90
29731;DHT22;16639;51.488;0.152;2023-07-09T06:46:46;18.60;99.90
29731;DHT22;16639;51.488;0.152;2023-07-09T06:49:15;18.90;99.90
29731;DHT22;16639;51.488;0.152;2023-07-09T06:51:42;19.00;99.90
29731;DHT22;16639;51.488;0.152;2023-07-09T06:54:11;19.00;99.90
29731;DHT22;16639;51.488;0.152;2023-07-09T06:56:39;19.60;99.90
29731;DHT22;16639;51.488;0.152;2023-07-09T06:59:06;19.10;99.90
29731;DHT22;16639;51.488;0.152;2023-07-09T07:01:34;19.10;99.90
29731;DHT22;16639;51.488;0.152;2023-07-09T07:04:01;19.20;99.90
29731;DHT22;16639;51.488;0.152;2023-07-09T07:06:29;19.30;99.90
29731;DHT22;16639;51.488;0.152;2023-07-09T07:08:58;19.40;99.90
29731;DHT22;16639;51.488;0.152;2023-07-09T07:11:25;19.40;99.90
29731;DHT22;16639;51.488;0.152;2023-07-09T07:13:57;19.10;99.90
29731;DHT22;16639;51.488;0.152;2023-07-09T07:16:24;19.40;99.90
29731;DHT22;16639;51.488;0.152;2023-07-09T07:18:52;19.40;99.90
29731;DHT22;16639;51.488;0.152;2023-07-09T07:21:19;19.40;99.90
29731;DHT22;16639;51.488;0.152;2023-07-09T07:23:47;19.40;99.90
29731;DHT22;16639;51.488;0.152;2023-07-09T07:26:16;19.40;99.90
29731;DHT22;16639;51.488;0.152;2023-07-09T07:28:43;19.40;99.90
29731;DHT22;16639;51.488;0.152;2023-07-09T07:31:10;19.40;99.90
29731;DHT22;16639;51.488;0.152;2023-07-09T07:33:40;19.40;99.90
29731;DHT22;16639;51.488;0.152;2023-07-09T07:36:09;19.40;99.90
29731;DHT22;16639;51.488;0.152;2023-07-09T07:38:39;19.20;99.90
29731;DHT22;16639;51.488;0.152;2023-07-09T07:41:07;19.50;99.90
29731;DHT22;16639;51.488;0.152;2023-07-09T07:43:34;19.60;99.90
29731;DHT22;16639;51.488;0.152;2023-07-09T07:46:02;19.60;99.90
29731;DHT22;16639;51.488;0.152;2023-07-09T07:48:30;19.70;99.90
29731;DHT22;16639;51.488;0.152;2023-07-09T07:51:01;19.70;99.90
29731;DHT22;16639;51.488;0.152;2023-07-09T07:53:31;19.70;99.90
29731;DHT22;16639;51.488;0.152;2023-07-09T07:55:58;19.80;99.90
29731;DHT22;16639;51.488;0.152;2023-07-09T07:58:26;19.80;99.90
29731;DHT22;16639;51.488;0.152;2023-07-09T08:00:57;19.80;99.90
29731;DHT22;16639;51.488;0.152;2023-07-09T08:03:25;19.80;99.90
29731;DHT22;16639;51.488;0.152;2023-07-09T08:05:53;19.70;99.90
29731;DHT22;16639;51.488;0.152;2023-07-09T08:08:20;19.70;99.90
29731;DHT22;16639;51.488;0.152;2023-07-09T08:10:51;19.70;99.90
29731;DHT22;16639;51.488;0.152;2023-07-09T08:13:19;19.70;99.90
29731;DHT22;16639;51.488;0.152;2023-07-09T08:15:46;19.80;99.90
29731;DHT22;16639;51.488;0.152;2023-07-09T08:18:16;19.90;99.90
29731;DHT22;16639;51.488;0.152;2023-07-09T08:20:44;20.00;99.90
29731;DHT22;16639;51.488;0.152;2023-07-09T08:23:12;20.10;99.90
29731;DHT22;16639;51.488;0.152;2023-07-09T08:25:39;20.10;99.90
29731;DHT22;16639;51.488;0.152;2023-07-09T08:28:07;20.30;99.90
29731;DHT22;16639;51.488;0.152;2023-07-09T08:30:35;20.20;99.90
29731;DHT22;16639;51.488;0.152;2023-07-09T08:33:03;20.30;99.90
29731;DHT22;16639;51.488;0.152;2023-07-09T08:35:30;20.30;99.90
29731;DHT22;16639;51.488;0.152;2023-07-09T08:38:03;20.20;99.90
29731;DHT22;16639;51.488;0.152;2023-07-09T08:40:31;20.10;99.90
29731;DHT22;16639;51.488;0.152;2023-07-09T08:43:10;20.10;99.90
29731;DHT22;16639;51.488;0.152;2023-07-09T08:45:53;20.10;99.90
29731;DHT22;16639;51.488;0.152;2023-07-09T08:48:31;20.00;99.90
29731;DHT22;16639;51.488;0.152;2023-07-09T08:51:50;20.00;99.90
29731;DHT22;16639;51.488;0.152;2023-07-09T08:54:01;20.00;99.90
29731;DHT22;16639;51.488;0.152;2023-07-09T08:56:32;20.00;99.90
29731;DHT22;16639;51.488;0.152;2023-07-09T08:59:02;19.90;99.90
29731;DHT22;16639;51.488;0.152;2023-07-09T09:01:52;19.90;99.90
29731;DHT22;16639;51.488;0.152;2023-07-09T09:04:27;19.90;99.90
29731;DHT22;16639;51.488;0.152;2023-07-09T09:07:19;19.90;99.90
29731;DHT22;16639;51.488;0.152;2023-07-09T09:10:02;19.90;99.90
29731;DHT22;16639;51.488;0.152;2023-07-09T09:12:48;19.90;99.90
29731;DHT22;16639;51.488;0.152;2023-07-09T09:15:20;19.90;99.90
29731;DHT22;16639;51.488;0.152;2023-07-09T09:18:10;20.00;99.90
29731;DHT22;16639;51.488;0.152;2023-07-09T09:20:41;19.90;99.90
29731;DHT22;16639;51.488;0.152;2023-07-09T09:25:40;19.90;99.90
29731;DHT22;16639;51.488;0.152;2023-07-09T09:28:09;19.90;99.90
29731;DHT22;16639;51.488;0.152;2023-07-09T09:30:36;20.00;99.90
29731;DHT22;16639;51.488;0.152;2023-07-09T09:33:08;20.10;99.90
29731;DHT22;16639;51.488;0.152;2023-07-09T09:35:41;20.20;99.90
29731;DHT22;16639;51.488;0.152;2023-07-09T09:38:16;20.20;99.90
29731;DHT22;16639;51.488;0.152;2023-07-09T09:40:44;20.20;99.90
29731;DHT22;16639;51.488;0.152;2023-07-09T09:43:18;20.20;99.90
29731;DHT22;16639;51.488;0.152;2023-07-09T09:45:49;20.20;99.90
29731;DHT22;16639;51.488;0.152;2023-07-09T09:48:28;20.40;99.90
29731;DHT22;16639;51.488;0.152;2023-07-09T09:50:56;20.50;99.90
29731;DHT22;16639;51.488;0.152;2023-07-09T09:53:37;20.60;99.90
29731;DHT22;16639;51.488;0.152;2023-07-09T09:56:06;20.70;99.90
29731;DHT22;16639;51.488;0.152;2023-07-09T09:58:34;20.80;99.90
29731;DHT22;16639;51.488;0.152;2023-07-09T10:01:01;20.80;99.90
29731;DHT22;16639;51.488;0.152;2023-07-09T10:03:34;20.80;99.90
29731;DHT22;16639;51.488;0.152;2023-07-09T10:06:08;20.90;99.90
29731;DHT22;16639;51.488;0.152;2023-07-09T10:08:56;20.80;99.90
29731;DHT22;16639;51.488;0.152;2023-07-09T10:11:46;20.90;99.90
29731;DHT22;16639;51.488;0.152;2023-07-09T10:17:23;21.10;99.90
29731;DHT22;16639;51.488;0.152;2023-07-09T10:22:54;21.20;99.90
29731;DHT22;16639;51.488;0.152;2023-07-09T10:25:53;21.20;99.90
29731;DHT22;16639;51.488;0.152;2023-07-09T10:31:16;21.50;99.90
29731;DHT22;16639;51.488;0.152;2023-07-09T10:36:56;21.70;99.90
29731;DHT22;16639;51.488;0.152;2023-07-09T10:39:37;21.70;99.90
29731;DHT22;16639;51.488;0.152;2023-07-09T10:42:15;21.80;99.90
29731;DHT22;16639;51.488;0.152;2023-07-09T10:44:46;21.80;99.90
29731;DHT22;16639;51.488;0.152;2023-07-09T10:47:34;21.80;99.90
29731;DHT22;16639;51.488;0.152;2023-07-09T10:50:05;21.80;99.90
29731;DHT22;16639;51.488;0.152;2023-07-09T10:52:39;21.90;99.90
29731;DHT22;16639;51.488;0.152;2023-07-09T10:55:31;21.80;99.90
29731;DHT22;16639;51.488;0.152;2023-07-09T10:58:05;21.80;99.90
29731;DHT22;16639;51.488;0.152;2023-07-09T11:00:41;21.90;99.90
29731;DHT22;16639;51.488;0.152;2023-07-09T11:03:19;21.30;99.90
29731;DHT22;16639;51.488;0.152;2023-07-09T11:05:48;21.80;99.90
29731;DHT22;16639;51.488;0.152;2023-07-09T11:08:23;21.90;99.90
29731;DHT22;16639;51.488;0.152;2023-07-09T11:14:41;21.90;99.90
29731;DHT22;16639;51.488;0.152;2023-07-09T11:17:17;21.90;99.90
29731;DHT22;16639;51.488;0.152;2023-07-09T11:19:53;22.00;99.90
29731;DHT22;16639;51.488;0.152;2023-07-09T11:22:53;22.00;99.90
29731;DHT22;16639;51.488;0.152;2023-07-09T11:25:42;22.10;99.90
29731;DHT22;16639;51.488;0.152;2023-07-09T11:28:10;22.20;99.90
29731;DHT22;16639;51.488;0.152;2023-07-09T11:30:53;22.20;99.90
29731;DHT22;16639;51.488;0.152;2023-07-09T11:33:27;22.20;99.90
29731;DHT22;16639;51.488;0.152;2023-07-09T11:36:13;22.20;99.90
29731;DHT22;16639;51.488;0.152;2023-07-09T11:38:44;22.30;99.90
29731;DHT22;16639;51.488;0.152;2023-07-09T11:41:42;22.30;99.90
29731;DHT22;16639;51.488;0.152;2023-07-09T11:52:24;22.30;99.90
29731;DHT22;16639;51.488;0.152;2023-07-09T11:54:53;22.30;99.90
29731;DHT22;16639;51.488;0.152;2023-07-09T11:57:21;22.30;99.90
29731;DHT22;16639;51.488;0.152;2023-07-09T11:59:48;22.40;99.90
29731;DHT22;16639;51.488;0.152;2023-07-09T12:02:19;22.40;99.90
29731;DHT22;16639;51.488;0.152;2023-07-09T12:04:52;22.40;99.90
29731;DHT22;16639;51.488;0.152;2023-07-09T12:07:22;22.60;99.90
29731;DHT22;16639;51.488;0.152;2023-07-09T12:09:51;22.60;99.90
29731;DHT22;16639;51.488;0.152;2023-07-09T12:12:24;22.60;99.90
29731;DHT22;16639;51.488;0.152;2023-07-09T12:14:52;22.60;99.90
29731;DHT22;16639;51.488;0.152;2023-07-09T12:17:25;22.50;99.90
29731;DHT22;16639;51.488;0.152;2023-07-09T12:19:54;22.60;99.90
29731;DHT22;16639;51.488;0.152;2023-07-09T12:22:22;22.60;99.90
29731;DHT22;16639;51.488;0.152;2023-07-09T12:24:50;22.60;99.90
29731;DHT22;16639;51.488;0.152;2023-07-09T12:27:24;22.60;99.90
29731;DHT22;16639;51.488;0.152;2023-07-09T12:29:56;22.60;99.90
29731;DHT22;16639;51.488;0.152;2023-07-09T12:32:24;22.70;99.90
29731;DHT22;16639;51.488;0.152;2023-07-09T12:34:56;22.80;99.90
29731;DHT22;16639;51.488;0.152;2023-07-09T12:37:25;22.80;99.90
29731;DHT22;16639;51.488;0.152;2023-07-09T12:39:55;22.60;99.90
29731;DHT22;16639;51.488;0.152;2023-07-09T12:42:34;22.70;99.90
29731;DHT22;16639;51.488;0.152;2023-07-09T12:45:03;22.70;99.90
29731;DHT22;16639;51.488;0.152;2023-07-09T12:47:31;22.70;99.90
29731;DHT22;16639;51.488;0.152;2023-07-09T12:53:01;22.80;99.90
29731;DHT22;16639;51.488;0.152;2023-07-09T12:55:30;22.80;99.90
29731;DHT22;16639;51.488;0.152;2023-07-09T12:58:09;22.80;99.90
29731;DHT22;16639;51.488;0.152;2023-07-09T13:00:37;22.80;99.90
29731;DHT22;16639;51.488;0.152;2023-07-09T13:03:13;22.70;99.90
29731;DHT22;16639;51.488;0.152;2023-07-09T13:05:52;22.70;99.90
29731;DHT22;16639;51.488;0.152;2023-07-09T13:08:19;22.60;99.90
29731;DHT22;16639;51.488;0.152;2023-07-09T13:10:47;22.60;99.90
29731;DHT22;16639;51.488;0.152;2023-07-09T13:13:20;22.50;99.90
29731;DHT22;16639;51.488;0.152;2023-07-09T13:15:56;22.30;99.90
29731;DHT22;16639;51.488;0.152;2023-07-09T13:18:25;22.30;99.90
29731;DHT22;16639;51.488;0.152;2023-07-09T13:20:55;22.30;99.90
29731;DHT22;16639;51.488;0.152;2023-07-09T13:23:26;22.30;99.90
29731;DHT22;16639;51.488;0.152;2023-07-09T13:25:55;22.30;99.90
29731;DHT22;16639;51.488;0.152;2023-07-09T13:28:28;22.40;99.90
29731;DHT22;16639;51.488;0.152;2023-07-09T13:33:36;22.30;99.90
29731;DHT22;16639;51.488;0.152;2023-07-09T13:36:06;22.30;99.90
29731;DHT22;16639;51.488;0.152;2023-07-09T13:38:34;22.30;99.90
29731;DHT22;16639;51.488;0.152;2023-07-09T13:41:11;22.40;99.90
29731;DHT22;16639;51.488;0.152;2023-07-09T13:43:43;22.50;99.90
29731;DHT22;16639;51.488;0.152;2023-07-09T13:46:12;22.60;99.90
29731;DHT22;16639;51.488;0.152;2023-07-09T13:48:42;22.70;99.90
29731;DHT22;16639;51.488;0.152;2023-07-09T13:51:19;22.70;99.90
29731;DHT22;16639;51.488;0.152;2023-07-09T13:53:47;22.90;99.90
29731;DHT22;16639;51.488;0.152;2023-07-09T13:56:15;23.00;99.90
29731;DHT22;16639;51.488;0.152;2023-07-09T13:58:42;23.10;99.90
29731;DHT22;16639;51.488;0.152;2023-07-09T14:01:24;23.20;99.90
29731;DHT22;16639;51.488;0.152;2023-07-09T14:03:54;23.10;99.90
29731;DHT22;16639;51.488;0.152;2023-07-09T14:06:25;23.00;99.90
29731;DHT22;16639;51.488;0.152;2023-07-09T14:08:53;23.00;99.90
29731;DHT22;16639;51.488;0.152;2023-07-09T14:11:20;22.90;99.90
29731;DHT22;16639;51.488;0.152;2023-07-09T14:13:48;22.80;99.90
29731;DHT22;16639;51.488;0.152;2023-07-09T14:16:16;22.80;99.90
29731;DHT22;16639;51.488;0.152;2023-07-09T14:18:43;22.70;99.90
29731;DHT22;16639;51.488;0.152;2023-07-09T14:21:17;22.70;99.90
29731;DHT22;16639;51.488;0.152;2023-07-09T14:23:45;22.60;99.90
29731;DHT22;16639;51.488;0.152;2023-07-09T14:26:12;22.50;99.90
29731;DHT22;16639;51.488;0.152;2023-07-09T14:28:40;22.40;99.90
29731;DHT22;16639;51.488;0.152;2023-07-09T14:31:24;22.50;99.90
29731;DHT22;16639;51.488;0.152;2023-07-09T14:33:52;22.50;99.90
29731;DHT22;16639;51.488;0.152;2023-07-09T14:36:20;22.40;99.90
29731;DHT22;16639;51.488;0.152;2023-07-09T14:38:48;22.40;99.90
29731;DHT22;16639;51.488;0.152;2023-07-09T14:41:22;22.50;99.90
29731;DHT22;16639;51.488;0.152;2023-07-09T14:43:50;22.40;99.90
29731;DHT22;16639;51.488;0.152;2023-07-09T14:46:18;22.40;99.90
29731;DHT22;16639;51.488;0.152;2023-07-09T14:48:45;22.40;99.90
29731;DHT22;16639;51.488;0.152;2023-07-09T14:51:14;22.30;99.90
29731;DHT22;16639;51.488;0.152;2023-07-09T14:53:45;22.30;99.90
29731;DHT22;16639;51.488;0.152;2023-07-09T14:56:15;22.30;99.90
29731;DHT22;16639;51.488;0.152;2023-07-09T14:58:42;22.30;99.90
29731;DHT22;16639;51.488;0.152;2023-07-09T15:01:15;22.30;99.90
29731;DHT22;16639;51.488;0.152;2023-07-09T15:03:43;22.30;99.90
29731;DHT22;16639;51.488;0.152;2023-07-09T15:06:11;22.20;99.90
29731;DHT22;16639;51.488;0.152;2023-07-09T15:08:38;22.20;99.90
29731;DHT22;16639;51.488;0.152;2023-07-09T15:11:07;22.10;99.90
29731;DHT22;16639;51.488;0.152;2023-07-09T15:13:36;22.10;99.90
29731;DHT22;16639;51.488;0.152;2023-07-09T15:16:04;22.00;99.90
29731;DHT22;16639;51.488;0.152;2023-07-09T15:18:32;21.90;99.90
29731;DHT22;16639;51.488;0.152;2023-07-09T15:21:04;21.80;99.90
29731;DHT22;16639;51.488;0.152;2023-07-09T15:23:37;21.70;99.90
29731;DHT22;16639;51.488;0.152;2023-07-09T15:26:15;21.70;99.90
29731;DHT22;16639;51.488;0.152;2023-07-09T15:28:43;21.60;99.90
29731;DHT22;16639;51.488;0.152;2023-07-09T15:31:14;21.70;99.90
29731;DHT22;16639;51.488;0.152;2023-07-09T15:33:41;21.80;99.90
29731;DHT22;16639;51.488;0.152;2023-07-09T15:36:11;22.10;99.90
29731;DHT22;16639;51.488;0.152;2023-07-09T15:38:39;21.90;99.90
29731;DHT22;16639;51.488;0.152;2023-07-09T15:41:13;22.00;99.90
29731;DHT22;16639;51.488;0.152;2023-07-09T15:43:44;22.00;99.90
29731;DHT22;16639;51.488;0.152;2023-07-09T15:46:30;22.00;99.90
29731;DHT22;16639;51.488;0.152;2023-07-09T15:48:57;21.90;99.90
29731;DHT22;16639;51.488;0.152;2023-07-09T15:51:25;22.10;99.90
29731;DHT22;16639;51.488;0.152;2023-07-09T15:53:53;22.10;99.90
29731;DHT22;16639;51.488;0.152;2023-07-09T15:56:30;22.10;99.90
29731;DHT22;16639;51.488;0.152;2023-07-09T15:59:00;22.10;99.90
29731;DHT22;16639;51.488;0.152;2023-07-09T16:01:28;22.10;99.90
29731;DHT22;16639;51.488;0.152;2023-07-09T16:04:00;22.10;99.90
29731;DHT22;16639;51.488;0.152;2023-07-09T16:06:28;22.20;99.90
29731;DHT22;16639;51.488;0.152;2023-07-09T16:08:55;22.30;99.90
29731;DHT22;16639;51.488;0.152;2023-07-09T16:11:23;22.40;99.90
29731;DHT22;16639;51.488;0.152;2023-07-09T16:13:52;22.40;99.90
29731;DHT22;16639;51.488;0.152;2023-07-09T16:16:22;22.50;99.90
29731;DHT22;16639;51.488;0.152;2023-07-09T16:18:52;22.40;99.90
29731;DHT22;16639;51.488;0.152;2023-07-09T16:21:28;22.40;99.90
29731;DHT22;16639;51.488;0.152;2023-07-09T16:23:58;23.50;99.90